createdAt,value
2023-03-29T00:01:06.103Z,-0.63
2023-03-29T00:04:20.018Z,-0.68
2023-03-29T00:07:33.770Z,-0.69
2023-03-29T00:10:46.344Z,-0.70
2023-03-29T00:13:58.493Z,-0.75
2023-03-29T00:17:12.948Z,-0.77
2023-03-29T00:20:25.763Z,-0.79
2023-03-29T00:23:38.033Z,-0.80
2023-03-29T00:26:50.198Z,-0.84
2023-03-29T00:30:04.359Z,-0.84
2023-03-29T00:33:16.695Z,-0.88
2023-03-29T00:36:28.825Z,-0.91
2023-03-29T00:39:44.149Z,-0.95
2023-03-29T00:42:57.328Z,-0.97
2023-03-29T00:46:11.330Z,-0.98
2023-03-29T00:49:23.608Z,-1.01
2023-03-29T00:52:39.029Z,-1.03
2023-03-29T00:55:56.886Z,-1.04
2023-03-29T00:59:11.879Z,-1.06
2023-03-29T01:02:27.584Z,-1.09
2023-03-29T01:05:44.645Z,-1.12
2023-03-29T01:09:01.387Z,-1.12
2023-03-29T01:12:20.977Z,-1.15
2023-03-29T01:15:34.993Z,-1.16
2023-03-29T01:18:47.236Z,-1.18
2023-03-29T01:22:05.047Z,-1.20
2023-03-29T01:25:25.565Z,-1.19
2023-03-29T01:28:42.711Z,-1.21
2023-03-29T01:31:59.239Z,-1.25
2023-03-29T01:35:17.999Z,-1.26
2023-03-29T01:38:34.868Z,-1.27
2023-03-29T01:41:54.251Z,-1.28
2023-03-29T01:45:14.069Z,-1.31
2023-03-29T01:48:31.868Z,-1.32
2023-03-29T01:51:48.374Z,-1.32
2023-03-29T01:55:07.205Z,-1.37
2023-03-29T01:58:22.725Z,-1.38
2023-03-29T02:01:39.169Z,-1.41
2023-03-29T02:04:56.351Z,-1.44
2023-03-29T02:08:11.865Z,-1.48
2023-03-29T02:11:26.188Z,-1.48
2023-03-29T02:14:39.818Z,-1.49
2023-03-29T02:17:53.561Z,-1.55
2023-03-29T02:21:05.830Z,-1.63
2023-03-29T02:24:22.513Z,-1.64
2023-03-29T02:27:37.772Z,-1.68
2023-03-29T02:30:57.392Z,-1.82
2023-03-29T02:34:16.213Z,-1.71
2023-03-29T02:37:30.573Z,-1.77
2023-03-29T02:40:45.570Z,-1.77
2023-03-29T02:43:58.776Z,-1.84
2023-03-29T02:47:16.920Z,-1.84
2023-03-29T02:50:30.601Z,-1.88
2023-03-29T02:53:46.682Z,-1.88
2023-03-29T02:57:04.054Z,-1.91
2023-03-29T03:00:22.537Z,-1.93
2023-03-29T03:03:36.109Z,-1.93
2023-03-29T03:06:49.188Z,-1.95
2023-03-29T03:10:01.309Z,-1.98
2023-03-29T03:13:14.059Z,-2.01
2023-03-29T03:16:26.634Z,-2.01
2023-03-29T03:19:39.897Z,-1.99
2023-03-29T03:22:54.267Z,-1.99
2023-03-29T03:26:06.437Z,-2.00
2023-03-29T03:29:19.873Z,-2.02
2023-03-29T03:32:50.070Z,-2.04
2023-03-29T03:36:22.992Z,-2.06
2023-03-29T03:39:37.366Z,-2.04
2023-03-29T03:42:50.064Z,-2.05
2023-03-29T03:46:02.910Z,-2.07
2023-03-29T03:49:16.871Z,-2.09
2023-03-29T03:52:30.119Z,-2.06
2023-03-29T03:55:43.188Z,-2.08
2023-03-29T03:58:57.454Z,-2.11
2023-03-29T04:02:10.714Z,-2.13
2023-03-29T04:05:24.067Z,-2.14
2023-03-29T04:08:37.041Z,-2.20
2023-03-29T04:12:00.107Z,-2.20
2023-03-29T04:15:15.009Z,-2.25
2023-03-29T04:18:30.227Z,-2.25
2023-03-29T04:21:46.345Z,-2.29
2023-03-29T04:24:58.517Z,-2.34
2023-03-29T04:28:17.506Z,-2.38
2023-03-29T04:31:32.376Z,-2.38
2023-03-29T04:35:02.607Z,-2.39
2023-03-29T04:38:15.136Z,-2.40
2023-03-29T04:41:29.292Z,-2.41
2023-03-29T04:44:49.200Z,-2.38
2023-03-29T04:48:06.003Z,-2.36
2023-03-29T04:51:20.369Z,-2.33
2023-03-29T04:54:34.698Z,-2.28
2023-03-29T04:57:48.863Z,-2.27
2023-03-29T05:01:06.085Z,-2.20
2023-03-29T05:04:23.195Z,-2.11
2023-03-29T05:07:37.612Z,-2.09
2023-03-29T05:10:52.348Z,-2.00
2023-03-29T05:14:07.197Z,-1.91
2023-03-29T05:17:20.637Z,-1.86
2023-03-29T05:20:34.088Z,-1.77
2023-03-29T05:23:46.693Z,-1.71
2023-03-29T05:27:02.834Z,-1.58
2023-03-29T05:30:19.765Z,-1.52
2023-03-29T05:33:37.244Z,-1.44
2023-03-29T05:36:50.354Z,-1.36
2023-03-29T05:40:08.068Z,-1.26
2023-03-29T05:43:34.290Z,-1.22
2023-03-29T05:54:08.801Z,-0.15
2023-03-29T05:57:21.818Z,0.36
2023-03-29T06:00:36.924Z,1.00
2023-03-29T06:03:51.424Z,1.45
2023-03-29T06:07:05.909Z,2.07
2023-03-29T06:10:20.591Z,2.41
2023-03-29T06:13:37.286Z,2.62
2023-03-29T06:16:50.590Z,2.61
2023-03-29T06:20:06.500Z,3.18
2023-03-29T06:23:19.968Z,3.90
2023-03-29T06:26:33.160Z,3.72
2023-03-29T09:30:53.673Z,13.34
2023-03-29T09:34:09.453Z,13.70
2023-03-29T09:37:30.236Z,13.48
2023-03-29T09:40:49.181Z,13.57
2023-03-29T09:44:07.346Z,13.04
2023-03-29T09:47:28.387Z,12.84
2023-03-29T09:50:47.000Z,12.83
2023-03-29T09:54:01.252Z,12.78
2023-03-29T09:57:24.269Z,12.94
2023-03-29T10:00:36.957Z,13.24
2023-03-29T10:03:54.635Z,13.67
2023-03-29T10:07:08.874Z,13.14
2023-03-29T10:10:32.218Z,13.72
2023-03-29T10:13:53.837Z,13.08
2023-03-29T10:17:08.864Z,13.81
2023-03-29T10:20:25.049Z,12.95
2023-03-29T10:23:41.324Z,13.51
2023-03-29T10:26:57.128Z,13.31
2023-03-29T10:30:18.708Z,12.73
2023-03-29T10:33:35.459Z,13.09
2023-03-29T10:36:52.447Z,12.77
2023-03-29T10:43:26.797Z,12.90
2023-03-29T10:46:46.713Z,12.43
2023-03-29T10:50:04.608Z,12.43
2023-03-29T10:53:25.587Z,12.63
2023-03-29T10:56:52.371Z,12.81
2023-03-29T11:00:11.042Z,12.16
2023-03-29T11:03:51.679Z,12.16
2023-03-29T11:07:23.447Z,12.31
2023-03-29T11:10:46.229Z,11.64
2023-03-29T11:14:04.072Z,11.88
2023-03-29T11:17:28.296Z,11.79
2023-03-29T11:20:48.056Z,12.32
2023-03-29T11:24:10.376Z,12.45
2023-03-29T11:27:33.299Z,12.61
2023-03-29T11:30:52.224Z,12.54
2023-03-29T11:34:16.535Z,12.78
2023-03-29T11:37:35.985Z,13.11
2023-03-29T11:40:58.000Z,13.08
2023-03-29T11:44:16.659Z,12.54
2023-03-29T11:47:33.498Z,12.33
2023-03-29T11:50:52.649Z,12.46
2023-03-29T11:54:15.013Z,12.66
2023-03-29T11:57:33.452Z,12.51
2023-03-29T12:00:49.293Z,12.95
2023-03-29T12:04:05.795Z,12.13
2023-03-29T13:27:43.226Z,12.89
2023-03-29T13:34:42.125Z,12.72
2023-03-29T13:41:39.995Z,12.64
2023-03-29T13:44:54.717Z,12.50
2023-03-29T13:48:29.583Z,12.34
2023-03-29T13:51:47.140Z,12.18
2023-03-29T13:55:04.186Z,12.31
2023-03-29T14:04:53.781Z,12.54
2023-03-29T14:08:13.192Z,12.34
2023-03-29T14:11:31.525Z,12.36
2023-03-29T14:14:58.364Z,12.38
2023-03-29T14:18:05.623Z,12.02
2023-03-29T14:21:17.673Z,11.98
2023-03-29T14:24:36.469Z,11.48
2023-03-29T14:27:49.564Z,11.59
2023-03-29T14:31:02.782Z,11.58
2023-03-29T14:34:26.971Z,11.46
2023-03-29T14:37:39.369Z,11.42
2023-03-29T14:40:53.542Z,11.11
2023-03-29T14:44:07.168Z,11.05
2023-03-29T14:47:28.321Z,10.83
2023-03-29T14:50:41.933Z,10.90
2023-03-29T14:53:55.293Z,11.01
2023-03-29T14:57:10.701Z,11.02
2023-03-29T15:00:35.253Z,10.47
2023-03-29T15:03:59.640Z,10.13
2023-03-29T15:07:12.632Z,10.27
2023-03-29T15:10:26.093Z,10.61
2023-03-29T15:13:39.046Z,10.76
2023-03-29T15:16:54.410Z,10.74
2023-03-29T15:20:15.986Z,10.78
2023-03-29T15:23:40.732Z,10.74
2023-03-29T15:27:05.760Z,10.60
2023-03-29T15:30:22.238Z,10.72
2023-03-29T15:33:41.863Z,10.52
2023-03-29T15:36:54.966Z,10.22
2023-03-29T15:40:09.933Z,10.36
2023-03-29T15:43:23.855Z,10.14
2023-03-29T15:46:36.482Z,9.90
2023-03-29T15:49:49.060Z,9.75
2023-03-29T15:53:14.170Z,9.49
2023-03-29T15:56:23.136Z,9.49
2023-03-29T15:59:36.675Z,9.59
2023-03-29T16:02:49.629Z,9.31
2023-03-29T16:06:04.848Z,9.34
2023-03-29T16:09:17.807Z,9.42
2023-03-29T16:12:33.378Z,9.39
2023-03-29T16:15:49.501Z,9.46
2023-03-29T16:19:01.804Z,9.41
2023-03-29T16:22:14.606Z,9.37
2023-03-29T16:25:27.696Z,9.43
2023-03-29T16:28:40.142Z,9.39
2023-03-29T16:31:53.601Z,9.30
2023-03-29T16:35:06.010Z,9.26
2023-03-29T16:38:18.517Z,9.13
2023-03-29T16:41:32.044Z,9.09
2023-03-29T16:44:44.754Z,9.01
2023-03-29T16:47:57.224Z,8.87
2023-03-29T16:51:11.425Z,8.84
2023-03-29T16:54:25.905Z,8.79
2023-03-29T16:57:39.065Z,8.70
2023-03-29T17:00:52.264Z,8.65
2023-03-29T17:04:04.543Z,8.59
2023-03-29T17:07:16.857Z,8.51
2023-03-29T17:10:29.847Z,8.27
2023-03-29T17:13:42.315Z,8.13
2023-03-29T17:16:54.666Z,8.02
2023-03-29T17:20:08.749Z,7.90
2023-03-29T17:23:21.346Z,7.83
2023-03-29T17:26:33.943Z,7.81
2023-03-29T17:29:46.242Z,7.68
2023-03-29T17:32:58.895Z,7.63
2023-03-29T17:36:13.890Z,7.61
2023-03-29T17:39:27.350Z,7.57
2023-03-29T17:42:39.958Z,7.50
2023-03-29T17:45:54.205Z,7.48
2023-03-29T17:49:07.060Z,7.39
2023-03-29T17:52:19.708Z,7.27
2023-03-29T17:55:32.050Z,7.18
2023-03-29T17:58:44.556Z,7.09
2023-03-29T18:01:57.726Z,6.94
2023-03-29T18:05:11.597Z,6.90
2023-03-29T18:08:24.358Z,6.83
2023-03-29T18:11:37.384Z,6.76
2023-03-29T18:14:49.897Z,6.66
2023-03-29T18:18:02.379Z,6.54
2023-03-29T18:21:15.656Z,6.51
2023-03-29T18:24:27.976Z,6.46
2023-03-29T18:27:40.297Z,6.45
2023-03-29T18:30:56.175Z,6.36
2023-03-29T18:34:08.603Z,6.25
2023-03-29T18:37:21.185Z,6.12
2023-03-29T18:40:34.903Z,6.10
2023-03-29T18:43:47.854Z,5.99
2023-03-29T18:47:00.368Z,5.98
2023-03-29T18:50:15.299Z,5.87
2023-03-29T18:53:27.893Z,5.78
2023-03-29T18:56:40.165Z,5.74
2023-03-29T18:59:52.808Z,5.69
2023-03-29T19:03:05.240Z,5.63
2023-03-29T19:06:18.028Z,5.65
2023-03-29T19:09:31.960Z,5.65
2023-03-29T19:12:44.771Z,5.58
2023-03-29T19:15:57.197Z,5.46
2023-03-29T19:19:10.938Z,5.43
2023-03-29T19:22:23.173Z,5.36
2023-03-29T19:25:36.909Z,5.36
2023-03-29T19:28:49.558Z,5.30
2023-03-29T19:32:01.909Z,5.32
2023-03-29T19:35:17.092Z,5.30
2023-03-29T19:38:29.712Z,5.23
2023-03-29T19:41:42.145Z,5.26
2023-03-29T19:44:54.775Z,5.21
2023-03-29T19:48:07.377Z,5.20
2023-03-29T19:51:20.044Z,5.14
2023-03-29T19:54:32.375Z,5.14
2023-03-29T19:57:44.678Z,5.22
2023-03-29T20:00:58.260Z,5.19
2023-03-29T20:04:12.060Z,5.19
2023-03-29T20:07:24.768Z,5.22
2023-03-29T20:10:37.446Z,5.18
2023-03-29T20:13:51.663Z,5.17
2023-03-29T20:17:04.684Z,5.15
2023-03-29T20:20:19.138Z,5.16
2023-03-29T20:23:31.799Z,5.13
2023-03-29T20:26:44.373Z,5.10
2023-03-29T20:29:56.725Z,5.09
2023-03-29T20:33:09.287Z,5.08
2023-03-29T20:36:23.329Z,5.05
2023-03-29T20:39:37.391Z,4.98
2023-03-29T20:42:49.925Z,4.91
2023-03-29T20:46:02.365Z,4.91
2023-03-29T20:49:16.492Z,4.79
2023-03-29T20:52:30.006Z,4.69
2023-03-29T20:55:43.028Z,4.67
2023-03-29T20:58:55.868Z,4.59
2023-03-29T21:02:08.917Z,4.47
2023-03-29T21:05:22.017Z,4.33
2023-03-29T21:08:34.727Z,4.45
2023-03-29T21:11:47.233Z,4.40
2023-03-29T21:15:00.622Z,4.39
2023-03-29T21:18:13.397Z,4.39
2023-03-29T21:21:26.325Z,4.37
2023-03-29T21:24:39.643Z,4.36
2023-03-29T21:27:52.075Z,4.37
2023-03-29T21:31:07.564Z,4.36
2023-03-29T21:34:20.086Z,4.37
2023-03-29T21:37:33.133Z,4.31
2023-03-29T21:40:45.505Z,4.32
2023-03-29T21:43:57.833Z,4.34
2023-03-29T21:47:10.209Z,4.32
2023-03-29T21:50:22.619Z,4.28
2023-03-29T21:53:35.002Z,4.28
2023-03-29T21:56:48.415Z,4.27
2023-03-29T22:00:00.982Z,4.26
2023-03-29T22:03:13.365Z,4.21
2023-03-29T22:06:25.712Z,4.18
2023-03-29T22:09:40.938Z,4.17
2023-03-29T22:12:53.501Z,4.12
2023-03-29T22:16:07.861Z,4.09
2023-03-29T22:19:20.242Z,4.06
2023-03-29T22:22:32.433Z,4.05
2023-03-29T22:25:45.039Z,4.01
2023-03-29T22:28:58.225Z,3.98
2023-03-29T22:32:11.506Z,3.98
2023-03-29T22:35:24.362Z,3.94
2023-03-29T22:38:37.354Z,3.92
2023-03-29T22:41:49.624Z,3.92
2023-03-29T22:45:01.746Z,3.93
2023-03-29T22:48:14.278Z,3.94
2023-03-29T22:51:27.451Z,3.94
2023-03-29T22:54:39.837Z,3.96
2023-03-29T22:57:51.958Z,3.94
2023-03-29T23:01:05.206Z,3.89
2023-03-29T23:04:18.214Z,3.88
2023-03-29T23:07:30.521Z,3.86
2023-03-29T23:10:42.638Z,3.83
2023-03-29T23:13:55.454Z,3.89
2023-03-29T23:17:09.512Z,3.94
2023-03-29T23:20:22.676Z,3.99
2023-03-29T23:23:35.806Z,4.01
2023-03-29T23:26:49.244Z,4.05
2023-03-29T23:30:01.940Z,4.10
2023-03-29T23:33:15.141Z,4.17
2023-03-29T23:36:29.422Z,4.18
2023-03-29T23:39:42.109Z,4.25
2023-03-29T23:42:56.583Z,4.30
2023-03-29T23:46:11.391Z,4.34
2023-03-29T23:49:24.479Z,4.37
2023-03-29T23:52:38.217Z,4.42
2023-03-29T23:55:51.550Z,4.44
2023-03-29T23:59:04.787Z,4.47
